Latest Weather Observations for Perth

IDW60801

Issued at 1:02 pm WST Friday 28 August 2015 (issued every 30 minutes, with the page automatically refreshed every 10 minutes)

About weather observations | Map of weather stations | Latest weather observations for WA | Other Formats
Station Details ID: 009225 Name: PERTH METRO Lat: -31.92 Lon: 115.87 Height: 24.9 m
Data from the previous 72 hours. | See also: Recent months at Perth
Date/Time
WST
Temp
°C
App
Temp
°C
Dew
Point
Rel
Hum
%
Delta-T
°C
Wind Press
QNH
hPa
Press
MSL
hPa
Rain
since 9 am
mm
Dir
 
Spd
km/h
Gust
km/h
Spd
kts
Gust
kts
28/01:00pm 20.7 19.4 15.7 73 3.0 NW 17 28 9 15 1014.9 1014.8 4.0
28/12:30pm 19.2 18.3 15.9 81 2.0 NNW 15 26 8 14 1015.1 1015.1 4.0
28/12:00pm 19.2 19.4 16.8 86 1.4 NW 11 20 6 11 1015.7 1015.7 4.0
28/11:30am 17.4 18.2 16.4 94 0.6 NW 7 13 4 7 1015.9 1015.9 3.8
28/11:00am 17.7 18.4 15.7 88 1.2 NNW 6 11 3 6 1016.1 1016.1 0.8
28/10:30am 18.7 17.8 14.8 78 2.3 NNW 13 20 7 11 1016.2 1016.2 0.0
28/10:00am 18.8 18.2 14.5 76 2.5 N 11 20 6 11 1016.1 1016.1 0.0
28/09:30am 18.2 17.0 14.1 77 2.4 NNE 13 19 7 10 1016.3 1016.3 0.0
28/09:00am 17.6 17.0 14.5 82 1.8 NNE 11 19 6 10 1016.2 1016.2 0.0
28/08:30am 16.6 15.9 14.2 86 1.4 NNE 11 19 6 10 1016.1 1016.1 0.0
28/08:00am 14.8 14.2 13.5 92 0.7 NNE 9 13 5 7 1015.9 1015.9 0.0
28/07:30am 13.3 12.2 13.0 98 0.2 NNE 11 17 6 9 1015.7 1015.7 0.0
28/07:00am 12.5 11.9 12.2 98 0.2 NNE 7 13 4 7 1015.5 1015.5 0.0
28/06:30am 12.0 11.2 11.7 98 0.2 NNE 7 13 4 7 1015.4 1015.4 0.0
28/06:00am 11.8 10.9 11.3 97 0.3 NNE 7 11 4 6 1015.3 1015.3 0.0
28/05:30am 11.8 10.9 11.3 97 0.3 N 7 11 4 6 1015.2 1015.2 0.0
28/05:00am 11.9 11.2 11.4 97 0.3 N 6 11 3 6 1015.2 1015.2 0.0
28/04:30am 12.0 11.1 11.4 96 0.3 N 7 9 4 5 1015.1 1015.1 0.0
28/04:00am 12.2 11.4 11.6 96 0.3 NNE 7 11 4 6 1014.8 1014.7 0.0
28/03:30am 12.5 11.3 11.7 95 0.4 NNE 9 13 5 7 1014.8 1014.7 0.0
28/03:00am 12.9 11.8 12.0 94 0.5 N 9 13 5 7 1015.0 1014.9 0.0
28/02:30am 13.1 12.1 12.2 94 0.5 N 9 15 5 8 1015.0 1014.9 0.0
28/02:00am 13.4 12.4 12.3 93 0.6 N 9 13 5 7 1015.0 1014.9 0.0
28/01:30am 13.3 12.3 12.2 93 0.6 NNE 9 13 5 7 1015.0 1014.9 0.0
28/01:00am 13.6 12.4 12.7 94 0.5 N 11 17 6 9 1014.8 1014.7 0.0
28/12:30am 13.7 12.9 12.8 94 0.5 NW 9 13 5 7 1014.8 1014.7 0.0
28/12:00am 13.5 13.0 12.1 91 0.8 WNW 6 9 3 5 1014.9 1014.8 0.0
 
Date/Time
WST
Temp
°C
App
Temp
°C
Dew
Point
Rel
Hum
%
Delta-T
°C
Wind Press
QNH
hPa
Press
MSL
hPa
Rain
since 9 am
mm
Dir
 
Spd
km/h
Gust
km/h
Spd
kts
Gust
kts
27/11:30pm 13.8 13.2 11.7 87 1.1 W 6 7 3 4 1014.9 1014.8 0.0
27/11:00pm 14.1 13.2 11.4 84 1.4 W 7 13 4 7 1014.9 1014.8 0.0
27/10:30pm 14.3 13.3 10.9 80 1.8 W 7 9 4 5 1014.9 1014.8 0.0
27/10:00pm 15.0 13.8 10.2 73 2.5 W 7 11 4 6 1015.2 1015.2 0.0
27/09:30pm 15.0 14.0 10.2 73 2.5 W 6 9 3 5 1015.1 1015.1 0.0
27/09:00pm 15.2 14.2 10.2 72 2.6 W 6 9 3 5 1015.1 1015.1 0.0
27/08:30pm 14.2 13.0 9.4 73 2.5 W 6 9 3 5 1015.0 1014.9 0.0
27/08:00pm 14.9 14.5 9.9 72 2.6 W 2 6 1 3 1014.8 1014.7 0.0
27/07:30pm 15.8 15.9 10.1 69 3.0 CALM 0 0 0 0 1014.5 1014.4 0.0
27/07:00pm 17.2 16.5 9.9 62 3.8 W 4 7 2 4 1014.3 1014.2 0.0
27/06:30pm 19.1 17.9 9.6 54 5.0 W 6 9 3 5 1014.0 1013.9 0.0
27/06:00pm 20.9 19.2 8.2 44 6.6 N 7 15 4 8 1013.9 1013.8 0.0
27/05:30pm 22.6 19.9 7.2 37 8.0 ENE 11 17 6 9 1013.3 1013.2 0.0
27/05:00pm 23.8 20.6 7.0 34 8.7 NE 13 20 7 11 1013.3 1013.2 0.0
27/04:30pm 24.1 21.2 6.4 32 9.1 NNE 11 22 6 12 1013.5 1013.4 0.0
27/04:00pm 24.1 20.4 6.4 32 9.1 NNE 15 30 8 16 1013.5 1013.4 0.0
27/03:30pm 24.3 21.5 7.0 33 9.0 NE 11 19 6 10 1013.5 1013.4 0.0
27/03:00pm 24.8 21.0 7.4 33 9.2 NE 17 28 9 15 1013.6 1013.5 0.0
27/02:30pm 24.7 21.6 7.4 33 9.1 NNE 13 22 7 12 1013.7 1013.6 0.0
27/02:00pm 24.0 19.9 6.3 32 9.1 NE 17 24 9 13 1013.8 1013.7 0.0
27/01:30pm 23.9 20.6 6.2 32 9.1 ENE 13 26 7 14 1013.9 1013.8 0.0
27/01:00pm 24.5 21.0 5.3 29 9.7 ENE 13 28 7 15 1014.4 1014.3 0.0
27/12:30pm 24.0 21.1 4.9 29 9.6 E 9 20 5 11 1014.8 1014.7 0.0
27/12:00pm 23.5 20.5 5.9 32 8.9 ENE 11 19 6 10 1015.5 1015.5 0.0
27/11:30am 22.7 19.6 5.6 33 8.6 ENE 11 17 6 9 1016.3 1016.3 0.0
27/11:00am 21.6 18.0 5.1 34 8.1 ENE 13 20 7 11 1017.1 1017.1 0.0
27/10:30am 20.4 17.5 4.8 36 7.6 ENE 9 17 5 9 1017.4 1017.4 0.0
27/10:00am 19.2 15.2 4.9 39 6.9 ENE 15 22 8 12 1017.7 1017.7 0.0
27/09:30am 18.1 15.6 6.6 47 5.7 ENE 9 15 5 8 1018.0 1018.0 0.0
27/09:00am 15.9 13.7 5.5 50 5.0 E 6 11 3 6 1018.3 1018.3 0.0
27/08:30am 15.1 12.9 5.3 52 4.6 ENE 6 17 3 9 1018.5 1018.5 0.0
27/08:00am 14.0 12.0 6.4 60 3.6 ESE 6 13 3 7 1018.5 1018.5 0.0
27/07:30am 11.1 9.7 5.6 69 2.5 ENE 2 7 1 4 1018.3 1018.3 0.0
27/07:00am 9.3 6.9 4.5 72 2.1 ENE 6 7 3 4 1018.2 1018.2 0.0
27/06:30am 9.5 7.1 4.3 70 2.3 E 6 7 3 4 1017.9 1017.9 0.0
27/06:00am 9.8 7.4 4.4 69 2.4 E 6 9 3 5 1017.8 1017.8 0.0
27/05:30am 10.4 7.9 4.5 67 2.6 E 7 11 4 6 1017.6 1017.6 0.0
27/05:00am 10.5 8.2 4.6 67 2.6 E 6 11 3 6 1017.6 1017.6 0.0
27/04:30am 10.3 7.8 4.9 69 2.4 NNE 7 11 4 6 1017.6 1017.6 0.0
27/04:00am 10.4 8.1 4.8 68 2.5 NNE 6 9 3 5 1017.7 1017.7 0.0
27/03:30am 10.4 8.5 4.8 68 2.5 NNE 4 11 2 6 1017.9 1017.9 0.0
27/03:00am 10.7 8.5 5.3 69 2.5 NNE 6 9 3 5 1018.0 1018.0 0.0
27/02:30am 10.5 8.7 5.5 71 2.3 NNE 4 9 2 5 1018.3 1018.3 0.0
27/02:00am 10.7 9.3 5.7 71 2.3 NNE 2 7 1 4 1018.6 1018.6 0.0
27/01:30am 11.3 10.0 5.8 69 2.6 NNE 2 7 1 4 1018.8 1018.8 0.0
27/01:00am 11.5 9.8 5.8 68 2.6 NNE 4 7 2 4 1018.9 1018.9 0.0
27/12:30am 12.3 10.6 5.9 65 3.0 NNE 4 9 2 5 1018.9 1018.9 0.0
27/12:00am 12.3 11.0 6.1 66 2.9 NNE 2 7 1 4 1019.0 1019.0 0.0
 
Date/Time
WST
Temp
°C
App
Temp
°C
Dew
Point
Rel
Hum
%
Delta-T
°C
Wind Press
QNH
hPa
Press
MSL
hPa
Rain
since 9 am
mm
Dir
 
Spd
km/h
Gust
km/h
Spd
kts
Gust
kts
26/11:30pm 11.8 10.6 6.3 69 2.6 NNE 2 7 1 4 1019.2 1019.2 0.0
26/11:00pm 11.4 10.8 7.3 76 2.0 CALM 0 4 0 2 1019.4 1019.4 0.0
26/10:30pm 11.2 10.5 6.9 75 2.0 CALM 0 0 0 0 1019.7 1019.7 0.0
26/10:00pm 11.8 11.2 7.5 75 2.1 CALM 0 0 0 0 1019.7 1019.7 0.0
26/09:30pm 11.7 11.1 7.4 75 2.1 CALM 0 0 0 0 1019.9 1019.9 0.0
26/09:00pm 12.3 12.0 8.8 79 1.7 CALM 0 0 0 0 1020.0 1020.0 0.0
26/08:30pm 12.6 12.1 7.9 73 2.3 CALM 0 0 0 0 1020.0 1020.0 0.0
26/08:00pm 14.0 13.8 9.0 72 2.5 CALM 0 0 0 0 1020.0 1020.0 0.0
26/07:30pm 14.6 14.0 7.4 62 3.5 CALM 0 0 0 0 1019.8 1019.8 0.0
26/07:00pm 15.5 14.8 7.0 57 4.2 CALM 0 0 0 0 1019.7 1019.7 0.0
26/06:30pm 16.1 15.3 6.3 52 4.8 CALM 0 6 0 3 1019.7 1019.7 0.0
26/06:00pm 16.8 16.0 6.3 50 5.1 CALM 0 2 0 1 1019.6 1019.6 0.0
26/05:30pm 18.1 17.1 5.7 44 6.1 CALM 0 0 0 0 1019.3 1019.3 0.0
26/05:00pm 19.6 16.9 3.7 35 7.5 NNE 7 11 4 6 1019.1 1019.1 0.0
26/04:30pm 20.3 17.6 3.5 33 8.0 NE 7 11 4 6 1019.0 1019.0 0.0
26/04:00pm 20.2 17.2 4.3 35 7.6 NE 9 15 5 8 1019.0 1019.0 0.0
26/03:30pm 20.5 17.0 3.7 33 8.0 NNE 11 19 6 10 1019.0 1019.0 0.0
26/03:00pm 20.4 17.5 4.8 36 7.6 NNE 9 20 5 11 1019.0 1019.0 0.0
26/02:30pm 20.3 16.7 4.8 36 7.6 NNE 13 19 7 10 1018.9 1018.9 0.0
26/02:00pm 20.7 17.4 4.3 34 7.9 NNE 11 20 6 11 1018.9 1018.9 0.0
26/01:30pm 20.2 16.3 5.4 38 7.3 NE 15 28 8 15 1019.3 1019.3 0.0
26/01:00pm 20.5 17.1 5.7 38 7.3 NNE 13 24 7 13 1019.7 1019.7 0.0
26/12:30pm 19.7 15.7 5.0 38 7.2 NNE 15 28 8 15 1020.2 1020.2 0.0
26/12:00pm 19.7 15.5 5.7 40 6.9 NNE 17 28 9 15 1020.7 1020.7 0.0
26/11:30am 19.0 14.8 5.5 41 6.6 NNE 17 26 9 14 1021.1 1021.1 0.0
26/11:00am 18.4 14.6 5.9 44 6.1 NNE 15 24 8 13 1021.3 1021.3 0.0
26/10:30am 17.3 13.1 5.9 47 5.6 NE 17 30 9 16 1021.6 1021.6 0.0
26/10:00am 16.0 11.7 5.3 49 5.1 NE 17 30 9 16 1021.8 1021.8 0.0
26/09:30am 14.8 10.8 5.1 52 4.6 NE 15 26 8 14 1021.9 1021.9 0.0
26/09:00am 14.2 10.3 5.3 55 4.2 NE 15 24 8 13 1021.9 1021.9 -
26/08:30am 12.8 9.1 4.5 57 3.8 NE 13 26 7 14 1021.9 1021.9 -
26/08:00am 10.5 8.3 5.5 71 2.3 E 6 7 3 4 1021.8 1021.8 -
26/07:30am 8.8 7.7 5.2 78 1.6 CALM 0 6 0 3 1021.5 1021.5 -
26/07:00am 7.9 6.7 4.5 79 1.5 CALM 0 0 0 0 1021.3 1021.3 -
26/06:30am 8.2 6.9 4.2 76 1.7 CALM 0 0 0 0 1020.9 1020.9 -
26/06:00am 8.9 6.9 4.5 74 1.9 E 4 7 2 4 1020.8 1020.8 -
26/05:30am 8.9 7.3 4.3 73 2.0 E 2 7 1 4 1020.9 1020.9 -
26/05:00am 8.8 6.8 4.6 75 1.9 E 4 7 2 4 1020.8 1020.8 -
26/04:30am 8.1 6.2 4.7 79 1.5 E 4 7 2 4 1020.7 1020.7 -
26/04:00am 8.0 6.8 4.4 78 1.6 CALM 0 0 0 0 1020.8 1020.8 -
26/03:30am 8.5 6.8 4.1 74 1.9 E 2 6 1 3 1021.1 1021.1 -
26/03:00am 9.0 7.0 4.4 73 2.0 E 4 7 2 4 1021.3 1021.3 0.0
26/02:30am 8.9 7.3 4.5 74 1.9 E 2 6 1 3 1021.7 1021.7 -
26/02:00am 9.2 7.6 4.4 72 2.1 E 2 7 1 4 1022.1 1022.1 -
26/01:30am 9.6 8.4 4.4 70 2.3 CALM 0 0 0 0 1022.3 1022.3 -
26/01:00am 10.4 8.0 4.3 66 2.7 E 6 9 3 5 1022.6 1022.6 -
26/12:30am 9.5 8.0 5.1 74 2.0 E 2 7 1 4 1022.7 1022.7 -
26/12:00am 9.0 7.9 5.2 77 1.7 CALM 0 6 0 3 1022.9 1022.9 -
 
Date/Time
WST
Temp
°C
App
Temp
°C
Dew
Point
Rel
Hum
%
Delta-T
°C
Wind Press
QNH
hPa
Press
MSL
hPa
Rain
since 9 am
mm
Dir
 
Spd
km/h
Gust
km/h
Spd
kts
Gust
kts
25/11:30pm 8.7 7.7 5.4 80 1.5 CALM 0 0 0 0 1023.2 1023.2 -
25/11:00pm 8.8 7.8 5.4 79 1.5 CALM 0 6 0 3 1023.5 1023.5 -
25/10:30pm 10.2 8.5 6.0 75 1.9 E 4 7 2 4 1023.8 1023.8 -
25/10:00pm 11.3 9.5 5.4 67 2.7 E 4 9 2 5 1024.0 1024.0 -
25/09:30pm 11.2 9.4 5.5 68 2.6 E 4 9 2 5 1024.1 1024.1 -
25/09:00pm 11.1 9.9 6.3 72 2.2 E 2 7 1 4 1024.2 1024.2 0.0
25/08:30pm 11.9 11.0 6.0 67 2.8 CALM 0 6 0 3 1024.2 1024.2 -
25/08:00pm 12.8 11.4 5.5 61 3.4 E 2 7 1 4 1024.1 1024.1 -
25/07:30pm 14.0 11.8 5.4 56 4.0 E 6 9 3 5 1024.0 1024.0 -
25/07:00pm 14.7 12.9 5.5 54 4.3 E 4 11 2 6 1023.7 1023.7 -
25/06:30pm 15.0 12.8 5.5 53 4.5 E 6 9 3 5 1023.6 1023.6 -
25/06:00pm 15.9 13.6 5.5 50 5.0 ENE 7 19 4 10 1023.4 1023.4 -
25/05:30pm 17.1 14.2 4.8 44 5.9 NE 9 17 5 9 1023.2 1023.2 -
25/05:00pm 17.8 14.9 4.4 41 6.3 E 9 19 5 10 1023.0 1023.0 -
25/04:30pm 18.2 14.9 4.4 40 6.6 ENE 11 19 6 10 1023.2 1023.2 -
25/04:00pm 17.8 14.5 4.4 41 6.3 ENE 11 20 6 11 1023.5 1023.5 -
25/03:30pm 18.3 14.3 4.8 41 6.5 ENE 15 22 8 12 1023.5 1023.5 -
25/03:00pm 19.1 16.1 4.1 37 7.1 E 9 20 5 11 1023.6 1023.6 -
25/02:30pm 18.8 15.1 4.2 38 7.0 ENE 13 26 7 14 1023.6 1023.6 -
25/02:00pm 18.3 14.6 4.5 40 6.6 E 13 22 7 12 1023.8 1023.8 -
25/01:30pm 18.8 14.5 3.0 35 7.3 ENE 15 28 8 15 1024.2 1024.2 -

Other Formats:

Comma delimited format used in spreadsheet applications
http://www.bom.gov.au/fwo/IDW60801/IDW60801.94608.axf

JavaScript Object Notation format (JSON) in row-major order
http://www.bom.gov.au/fwo/IDW60801/IDW60801.94608.json